createdAt,value
2019-04-30T00:00:55.294Z,60.27
2019-04-30T00:03:30.146Z,58.43
2019-04-30T00:06:00.717Z,60.10
2019-04-30T00:08:35.559Z,59.87
2019-04-30T00:11:05.223Z,63.90
2019-04-30T00:13:35.971Z,63.40
2019-04-30T00:16:06.407Z,60.60
2019-04-30T00:18:39.582Z,62.93
2019-04-30T00:21:10.003Z,67.20
2019-04-30T00:23:41.484Z,64.80
2019-04-30T00:26:12.012Z,57.77
2019-04-30T00:28:46.235Z,56.40
2019-04-30T00:31:17.616Z,69.30
2019-04-30T00:33:47.079Z,61.97
2019-04-30T00:36:17.528Z,59.73
2019-04-30T00:38:48.091Z,64.50
2019-04-30T00:41:18.540Z,67.33
2019-04-30T00:43:50.748Z,63.57
2019-04-30T00:46:25.062Z,64.97
2019-04-30T00:48:56.806Z,61.23
2019-04-30T00:51:26.357Z,65.90
2019-04-30T00:53:56.890Z,63.67
2019-04-30T00:56:28.358Z,60.27
2019-04-30T00:59:02.414Z,66.50
2019-04-30T01:01:48.738Z,71.80
2019-04-30T01:04:28.001Z,70.97
2019-04-30T01:07:00.290Z,70.13
2019-04-30T01:09:29.285Z,72.70
2019-04-30T01:11:59.812Z,75.47
2019-04-30T01:14:31.995Z,76.40
2019-04-30T01:17:03.751Z,68.00
2019-04-30T01:19:35.393Z,77.57
2019-04-30T01:22:05.907Z,79.77
2019-04-30T01:24:38.641Z,77.67
2019-04-30T01:27:10.629Z,64.37
2019-04-30T01:29:44.344Z,66.40
2019-04-30T01:32:17.572Z,69.33
2019-04-30T01:34:49.845Z,70.83
2019-04-30T01:37:20.344Z,66.60
2019-04-30T01:39:50.716Z,64.53
2019-04-30T01:42:21.348Z,69.63
2019-04-30T01:44:53.840Z,65.87
2019-04-30T01:47:27.639Z,76.20
2019-04-30T01:50:00.987Z,75.13
2019-04-30T01:52:35.117Z,69.23
2019-04-30T01:55:02.359Z,72.83
2019-04-30T01:57:34.334Z,74.30
2019-04-30T02:00:14.005Z,72.47
2019-04-30T02:02:46.155Z,69.17
2019-04-30T02:05:18.767Z,79.83
2019-04-30T02:07:49.359Z,129.33
2019-04-30T02:10:20.032Z,128.10
2019-04-30T02:12:50.615Z,128.00
2019-04-30T02:15:21.137Z,118.53
2019-04-30T02:17:51.608Z,109.90
2019-04-30T02:20:22.220Z,118.73
2019-04-30T02:22:52.640Z,96.50
2019-04-30T02:25:23.212Z,106.13
2019-04-30T02:27:53.669Z,91.47
2019-04-30T02:30:24.264Z,88.57
2019-04-30T02:32:56.027Z,85.13
2019-04-30T02:35:37.339Z,76.97
2019-04-30T02:38:12.264Z,71.67
2019-04-30T02:40:43.049Z,67.67
2019-04-30T02:43:14.597Z,75.37
2019-04-30T02:45:49.583Z,78.27
2019-04-30T02:48:22.387Z,75.77
2019-04-30T02:50:55.692Z,86.10
2019-04-30T02:53:51.690Z,83.53
2019-04-30T02:56:26.519Z,83.20
2019-04-30T02:58:56.072Z,82.77
2019-04-30T03:01:26.544Z,79.33
2019-04-30T03:03:59.561Z,82.47
2019-04-30T03:06:30.340Z,137.70
2019-04-30T03:09:01.434Z,137.23
2019-04-30T03:11:32.047Z,119.77
2019-04-30T03:14:02.492Z,135.70
2019-04-30T03:16:39.965Z,138.37
2019-04-30T03:19:23.183Z,130.37
2019-04-30T03:22:01.191Z,125.80
2019-04-30T03:24:31.605Z,125.70
2019-04-30T03:27:02.338Z,117.50
2019-04-30T03:29:33.025Z,102.03
2019-04-30T03:32:03.823Z,96.27
2019-04-30T03:34:34.346Z,84.23
2019-04-30T03:37:04.794Z,78.90
2019-04-30T03:39:35.370Z,81.00
2019-04-30T03:42:05.894Z,84.70
2019-04-30T03:44:36.295Z,87.43
2019-04-30T03:47:07.044Z,93.47
2019-04-30T03:49:40.101Z,118.73
2019-04-30T03:52:13.116Z,117.83
2019-04-30T03:54:42.114Z,121.43
2019-04-30T03:57:12.579Z,129.00
2019-04-30T03:59:43.100Z,93.30
2019-04-30T04:02:15.224Z,109.83
2019-04-30T04:04:53.318Z,91.13
2019-04-30T04:07:29.997Z,92.30
2019-04-30T04:10:02.195Z,86.23
2019-04-30T04:12:32.713Z,73.50
2019-04-30T04:15:04.210Z,66.93
2019-04-30T04:17:34.765Z,71.77
2019-04-30T04:20:06.631Z,69.30
2019-04-30T04:22:40.096Z,58.90
2019-04-30T04:25:13.277Z,68.23
2019-04-30T04:27:42.419Z,67.37
2019-04-30T04:30:12.942Z,66.17
2019-04-30T04:32:43.516Z,73.77
2019-04-30T04:35:14.170Z,58.50
2019-04-30T04:37:44.783Z,68.23
2019-04-30T04:40:15.189Z,57.30
2019-04-30T04:42:45.793Z,59.27
2019-04-30T04:45:16.205Z,55.83
2019-04-30T04:47:46.796Z,54.03
2019-04-30T04:50:19.867Z,57.80
2019-04-30T04:52:49.820Z,59.83
2019-04-30T04:55:22.274Z,59.03
2019-04-30T04:57:52.639Z,52.73
2019-04-30T05:00:23.229Z,51.27
2019-04-30T05:02:59.339Z,46.07
2019-04-30T05:05:30.048Z,46.17
2019-04-30T05:08:00.544Z,45.77
2019-04-30T05:10:31.091Z,38.27
2019-04-30T05:13:01.548Z,45.77
2019-04-30T05:15:31.995Z,42.37
2019-04-30T05:18:02.597Z,37.53
2019-04-30T05:20:33.141Z,35.53
2019-04-30T05:23:03.705Z,36.77
2019-04-30T05:25:34.562Z,31.77
2019-04-30T05:28:05.444Z,36.23
2019-04-30T05:30:36.061Z,31.40
2019-04-30T05:33:18.510Z,35.33
2019-04-30T05:35:49.691Z,29.87
2019-04-30T05:38:20.117Z,32.50
2019-04-30T05:40:50.560Z,38.70
2019-04-30T05:43:21.023Z,33.97
2019-04-30T05:45:51.560Z,29.90
2019-04-30T05:48:22.037Z,35.43
2019-04-30T05:50:52.433Z,37.33
2019-04-30T05:53:22.872Z,27.10
2019-04-30T05:55:53.267Z,31.53
2019-04-30T05:58:23.763Z,30.57
2019-04-30T06:00:54.216Z,33.90
2019-04-30T06:03:28.149Z,28.93
2019-04-30T06:05:56.760Z,28.43
2019-04-30T06:08:29.317Z,27.63
2019-04-30T06:11:04.466Z,31.23
2019-04-30T06:13:38.385Z,30.67
2019-04-30T06:16:10.314Z,27.47
2019-04-30T06:18:42.298Z,25.65
2019-04-30T06:21:12.904Z,22.93
2019-04-30T06:23:43.559Z,29.40
2019-04-30T06:26:14.482Z,40.03
2019-04-30T06:28:45.145Z,34.50
2019-04-30T06:31:15.591Z,33.63
2019-04-30T06:33:46.285Z,20.23
2019-04-30T06:36:19.030Z,21.02
2019-04-30T06:38:49.190Z,19.55
2019-04-30T06:41:19.876Z,24.45
2019-04-30T06:43:51.467Z,23.27
2019-04-30T06:46:22.030Z,23.98
2019-04-30T06:48:53.266Z,22.13
2019-04-30T06:51:23.865Z,23.02
2019-04-30T06:53:54.434Z,19.75
2019-04-30T06:56:25.071Z,18.45
2019-04-30T06:58:55.662Z,20.77
2019-04-30T07:01:29.029Z,14.85
2019-04-30T07:04:01.010Z,19.77
2019-04-30T07:06:36.690Z,18.12
2019-04-30T07:09:08.877Z,24.60
2019-04-30T07:11:40.938Z,17.73
2019-04-30T07:14:11.489Z,21.52
2019-04-30T07:16:41.894Z,21.10
2019-04-30T07:19:12.375Z,14.40
2019-04-30T07:21:45.227Z,13.28
2019-04-30T07:24:15.184Z,14.70
2019-04-30T07:26:45.599Z,35.73
2019-04-30T07:29:16.193Z,40.85
2019-04-30T07:31:46.608Z,31.20
2019-04-30T07:34:19.488Z,30.62
2019-04-30T07:37:09.639Z,35.28
2019-04-30T07:39:23.562Z,34.25
2019-04-30T07:41:53.575Z,14.93
2019-04-30T07:44:33.802Z,14.90
2019-04-30T07:46:56.227Z,28.67
2019-04-30T07:49:45.960Z,29.48
2019-04-30T07:52:01.137Z,15.98
2019-04-30T07:54:30.889Z,10.08
2019-04-30T07:57:01.325Z,11.35
2019-04-30T07:59:31.863Z,13.65
2019-04-30T08:02:10.022Z,41.13
2019-04-30T08:04:45.005Z,38.58
2019-04-30T08:07:15.545Z,33.45
2019-04-30T08:09:46.103Z,16.67
2019-04-30T08:12:26.286Z,29.18
2019-04-30T08:14:49.598Z,13.53
2019-04-30T08:17:20.100Z,10.40
2019-04-30T08:19:50.553Z,15.08
2019-04-30T08:22:21.341Z,38.83
2019-04-30T08:24:52.003Z,44.38
2019-04-30T08:27:22.546Z,29.82
2019-04-30T08:29:54.336Z,10.95
2019-04-30T08:32:24.925Z,11.18
2019-04-30T08:34:55.396Z,12.75
2019-04-30T08:37:25.975Z,8.85
2019-04-30T08:39:59.367Z,13.75
2019-04-30T08:42:33.929Z,12.55
2019-04-30T08:45:01.607Z,13.53
2019-04-30T08:47:32.066Z,9.58
2019-04-30T08:50:05.961Z,9.63
2019-04-30T08:52:36.744Z,9.15
2019-04-30T08:55:16.147Z,12.43
2019-04-30T08:57:41.011Z,9.98
2019-04-30T09:00:15.199Z,9.55
2019-04-30T09:02:50.774Z,9.33
2019-04-30T09:05:23.422Z,16.85
2019-04-30T09:07:55.553Z,10.65
2019-04-30T09:10:26.819Z,8.95
2019-04-30T09:12:59.785Z,12.70
2019-04-30T09:15:30.686Z,18.75
2019-04-30T09:18:07.100Z,20.55
2019-04-30T09:20:34.988Z,20.17
2019-04-30T09:23:10.964Z,21.90
2019-04-30T09:25:41.065Z,25.92
2019-04-30T09:28:19.841Z,22.25
2019-04-30T09:30:58.737Z,21.20
2019-04-30T09:33:34.781Z,20.92
2019-04-30T09:36:09.028Z,20.15
2019-04-30T09:38:39.884Z,19.87
2019-04-30T09:41:10.528Z,20.65
2019-04-30T09:43:41.309Z,19.48
2019-04-30T09:46:21.275Z,21.50
2019-04-30T09:48:45.458Z,22.82
2019-04-30T09:51:16.761Z,17.48
2019-04-30T09:53:56.809Z,23.50
2019-04-30T09:56:30.146Z,18.30
2019-04-30T09:59:06.009Z,14.45
2019-04-30T10:01:42.022Z,19.10
2019-04-30T10:04:20.277Z,14.30
2019-04-30T10:06:53.624Z,15.20
2019-04-30T10:09:25.971Z,20.15
2019-04-30T10:12:07.045Z,20.30
2019-04-30T10:14:40.789Z,19.65
2019-04-30T10:17:23.495Z,17.15
2019-04-30T10:19:54.094Z,17.50
2019-04-30T10:22:24.736Z,20.55
2019-04-30T10:25:09.279Z,21.95
2019-04-30T10:27:41.451Z,21.87
2019-04-30T10:30:13.469Z,31.93
2019-04-30T10:32:44.232Z,36.55
2019-04-30T10:35:18.376Z,40.60
2019-04-30T10:37:50.739Z,35.80
2019-04-30T10:40:23.546Z,37.17
2019-04-30T10:42:58.807Z,41.53
2019-04-30T10:45:30.177Z,45.88
2019-04-30T10:48:00.936Z,65.30
2019-04-30T10:50:31.499Z,61.73
2019-04-30T10:53:02.192Z,82.80
2019-04-30T10:55:33.162Z,80.47
2019-04-30T10:58:25.505Z,86.30
2019-04-30T11:01:02.016Z,100.67
2019-04-30T11:03:35.092Z,91.82
2019-04-30T11:06:05.687Z,89.10
2019-04-30T11:08:36.322Z,94.55
2019-04-30T11:11:06.954Z,96.22
2019-04-30T11:13:37.480Z,80.70
2019-04-30T11:16:14.624Z,87.27
2019-04-30T11:18:40.464Z,91.32
2019-04-30T11:21:11.470Z,90.20
2019-04-30T11:23:42.353Z,84.85
2019-04-30T11:26:13.822Z,84.83
2019-04-30T11:28:45.137Z,80.57
2019-04-30T11:31:26.852Z,80.25
2019-04-30T11:33:59.264Z,80.55
2019-04-30T11:36:29.797Z,79.17
2019-04-30T11:39:00.701Z,85.62
2019-04-30T11:41:33.311Z,80.57
2019-04-30T11:44:03.669Z,81.97
2019-04-30T11:46:54.270Z,71.82
2019-04-30T11:49:24.919Z,70.42
2019-04-30T11:51:55.592Z,76.15
2019-04-30T11:54:26.221Z,69.30
2019-04-30T11:56:58.674Z,71.00
2019-04-30T11:59:29.765Z,70.72
2019-04-30T12:02:02.119Z,63.40
2019-04-30T12:04:32.683Z,68.60
2019-04-30T12:07:13.549Z,69.77
2019-04-30T12:10:01.783Z,70.87
2019-04-30T12:12:32.200Z,70.17
2019-04-30T12:15:02.935Z,78.30
2019-04-30T12:17:33.471Z,66.92
2019-04-30T12:20:08.647Z,64.82
2019-04-30T12:23:03.861Z,66.95
2019-04-30T12:30:58.813Z,60.85
2019-04-30T12:32:12.526Z,66.90
2019-04-30T12:34:52.475Z,66.35
2019-04-30T12:37:24.659Z,66.05
2019-04-30T12:39:59.386Z,50.03
2019-04-30T12:42:44.337Z,54.05
2019-04-30T12:45:19.991Z,53.45
2019-04-30T12:48:10.589Z,58.73
2019-04-30T12:50:53.998Z,55.65
2019-04-30T12:53:32.186Z,51.68
2019-04-30T12:56:09.015Z,56.73
2019-04-30T12:58:43.875Z,47.90
2019-04-30T13:01:16.617Z,51.42
2019-04-30T13:03:58.122Z,50.40
2019-04-30T13:06:22.800Z,52.50
2019-04-30T13:08:56.573Z,47.85
2019-04-30T13:14:51.723Z,47.93
2019-04-30T13:17:45.606Z,46.00
2019-04-30T13:47:32.299Z,42.70
2019-04-30T13:50:09.334Z,50.90
2019-04-30T13:52:41.134Z,46.77
2019-04-30T13:55:19.266Z,44.00
2019-04-30T13:57:51.001Z,41.13
2019-04-30T14:00:35.336Z,40.40
2019-04-30T14:03:33.024Z,48.20
2019-04-30T14:06:05.812Z,42.30
2019-04-30T14:08:51.389Z,41.63
2019-04-30T14:41:27.372Z,38.08
2019-04-30T15:01:13.349Z,42.13
2019-04-30T15:37:34.110Z,41.13
2019-04-30T16:04:01.485Z,44.83
2019-04-30T16:06:44.676Z,49.60
2019-04-30T16:10:14.350Z,47.43
2019-04-30T16:16:14.362Z,47.23
2019-04-30T16:58:02.096Z,58.10
2019-04-30T17:00:39.329Z,53.83
2019-04-30T17:03:21.784Z,59.97
2019-04-30T17:06:19.445Z,49.00
2019-04-30T17:08:55.404Z,51.53
2019-04-30T17:11:49.044Z,54.07
2019-04-30T17:14:20.834Z,55.50
2019-04-30T17:16:51.834Z,56.40
2019-04-30T17:19:34.280Z,58.47
2019-04-30T17:22:06.005Z,55.23
2019-04-30T17:24:39.224Z,56.77
2019-04-30T17:27:18.045Z,65.37
2019-04-30T17:29:49.886Z,52.50
2019-04-30T17:32:20.591Z,54.67
2019-04-30T17:34:51.478Z,59.53
2019-04-30T17:37:22.705Z,62.83
2019-04-30T17:39:53.673Z,58.10
2019-04-30T17:42:42.943Z,55.40
2019-04-30T17:45:16.955Z,54.80
2019-04-30T17:47:50.738Z,63.27
2019-04-30T17:50:37.078Z,60.67
2019-04-30T17:53:13.130Z,64.13
2019-04-30T17:55:44.262Z,59.43
2019-04-30T17:58:15.262Z,69.07
2019-04-30T18:00:48.763Z,58.87
2019-04-30T18:03:21.234Z,64.73
2019-04-30T18:05:52.011Z,63.20
2019-04-30T18:08:28.022Z,61.30
2019-04-30T18:10:55.387Z,61.50
2019-04-30T18:13:25.991Z,57.37
2019-04-30T18:15:56.539Z,72.00
2019-04-30T18:18:28.592Z,65.30
2019-04-30T18:21:03.804Z,57.50
2019-04-30T18:23:38.510Z,65.50
2019-04-30T18:26:13.507Z,59.47
2019-04-30T18:28:43.862Z,63.20
2019-04-30T18:31:14.332Z,61.47
2019-04-30T18:33:44.764Z,66.80
2019-04-30T18:36:15.324Z,66.87
2019-04-30T18:38:45.942Z,68.10
2019-04-30T18:41:16.410Z,74.03
2019-04-30T18:43:48.580Z,70.50
2019-04-30T18:46:19.243Z,67.53
2019-04-30T18:48:52.594Z,59.27
2019-04-30T18:51:33.871Z,56.77
2019-04-30T18:53:54.251Z,56.17
2019-04-30T18:56:24.637Z,64.17
2019-04-30T18:58:55.218Z,62.67
2019-04-30T19:01:25.656Z,58.13
2019-04-30T19:03:56.213Z,52.30
2019-04-30T19:06:26.825Z,55.23
2019-04-30T19:09:10.666Z,60.93
2019-04-30T19:11:59.362Z,58.50
2019-04-30T19:14:49.194Z,58.43
2019-04-30T19:17:24.146Z,54.37
2019-04-30T19:20:12.458Z,61.70
2019-04-30T19:22:42.861Z,61.80
2019-04-30T19:25:13.299Z,59.30
2019-04-30T19:27:43.733Z,54.97
2019-04-30T19:30:14.478Z,57.90
2019-04-30T19:32:44.919Z,55.33
2019-04-30T19:35:15.478Z,51.20
2019-04-30T19:37:45.903Z,60.90
2019-04-30T19:40:16.353Z,51.40
2019-04-30T19:42:48.904Z,54.43
2019-04-30T19:45:18.976Z,55.27
2019-04-30T19:47:49.478Z,55.40
2019-04-30T19:50:19.947Z,52.60
2019-04-30T19:52:50.364Z,55.57
2019-04-30T19:55:20.826Z,60.97
2019-04-30T19:57:51.245Z,53.83
2019-04-30T20:00:22.297Z,53.40
2019-04-30T20:02:52.728Z,58.17
2019-04-30T20:05:23.266Z,59.13
2019-04-30T20:07:53.685Z,59.73
2019-04-30T20:10:24.165Z,57.70
2019-04-30T20:12:54.592Z,58.57
2019-04-30T20:15:25.047Z,56.43
2019-04-30T20:17:55.480Z,66.83
2019-04-30T20:20:25.936Z,59.73
2019-04-30T20:22:56.354Z,69.93
2019-04-30T20:25:26.819Z,63.67
2019-04-30T20:27:57.291Z,57.63
2019-04-30T20:30:29.219Z,56.50
2019-04-30T20:32:59.659Z,54.47
2019-04-30T20:35:30.139Z,52.90
2019-04-30T20:38:19.467Z,54.57
2019-04-30T20:41:00.258Z,54.17
2019-04-30T20:43:23.923Z,54.87
2019-04-30T20:45:54.395Z,57.30
2019-04-30T20:48:24.832Z,55.47
2019-04-30T20:50:55.319Z,52.57
2019-04-30T20:53:25.660Z,57.73
2019-04-30T20:55:56.112Z,54.27
2019-04-30T20:58:26.516Z,61.17
2019-04-30T21:01:03.405Z,72.33
2019-04-30T21:03:29.656Z,68.00
2019-04-30T21:06:00.614Z,67.33
2019-04-30T21:08:31.037Z,58.27
2019-04-30T21:11:01.427Z,55.00
2019-04-30T21:13:31.824Z,60.37
2019-04-30T21:16:02.279Z,64.60
2019-04-30T21:18:33.640Z,63.20
2019-04-30T21:21:04.099Z,64.43
2019-04-30T21:23:34.538Z,57.63
2019-04-30T21:26:05.011Z,53.07
2019-04-30T21:28:35.339Z,59.87
2019-04-30T21:31:23.520Z,60.43
2019-04-30T21:33:58.129Z,60.10
2019-04-30T21:36:28.484Z,59.43
2019-04-30T21:38:59.106Z,52.03
2019-04-30T21:41:29.812Z,58.73
2019-04-30T21:44:00.295Z,59.20
2019-04-30T21:46:30.801Z,49.77
2019-04-30T21:49:01.214Z,47.63
2019-04-30T21:51:31.698Z,46.13
2019-04-30T21:54:02.132Z,54.73
2019-04-30T21:56:32.612Z,55.23
2019-04-30T21:59:03.022Z,56.80
2019-04-30T22:01:33.500Z,52.60
2019-04-30T22:04:04.032Z,50.10
2019-04-30T22:06:34.566Z,51.17
2019-04-30T22:09:07.171Z,53.93
2019-04-30T22:11:39.476Z,48.97
2019-04-30T22:14:09.971Z,47.43
2019-04-30T22:16:40.426Z,50.63
2019-04-30T22:19:10.849Z,49.03
2019-04-30T22:21:41.342Z,50.57
2019-04-30T22:24:11.772Z,59.20
2019-04-30T22:26:42.240Z,48.10
2019-04-30T22:29:12.667Z,44.80
2019-04-30T22:31:44.107Z,46.23
2019-04-30T22:34:14.530Z,52.20
2019-04-30T22:36:48.662Z,46.50
2019-04-30T22:39:20.175Z,49.43
2019-04-30T22:41:50.611Z,47.07
2019-04-30T22:44:21.025Z,49.87
2019-04-30T22:46:51.509Z,50.73
2019-04-30T22:49:21.942Z,53.60
2019-04-30T22:51:52.409Z,56.30
2019-04-30T22:54:22.852Z,55.30
2019-04-30T22:56:53.310Z,48.77
2019-04-30T22:59:23.660Z,56.50
2019-04-30T23:02:04.507Z,52.80
2019-04-30T23:04:39.242Z,54.00
2019-04-30T23:07:09.781Z,53.73
2019-04-30T23:09:40.207Z,53.57
2019-04-30T23:12:10.762Z,55.03
2019-04-30T23:14:41.095Z,55.97
2019-04-30T23:17:11.617Z,54.00
2019-04-30T23:19:49.183Z,58.53
2019-04-30T23:22:14.316Z,54.87
2019-04-30T23:24:44.758Z,47.73
2019-04-30T23:27:15.271Z,55.20
2019-04-30T23:29:45.731Z,53.70
2019-04-30T23:32:16.239Z,54.13
2019-04-30T23:34:46.698Z,53.03
2019-04-30T23:37:17.168Z,51.30
2019-04-30T23:39:47.682Z,53.27
2019-04-30T23:42:18.169Z,48.87
2019-04-30T23:44:48.652Z,57.30
2019-04-30T23:47:19.120Z,44.97
2019-04-30T23:49:49.546Z,54.67
2019-04-30T23:52:20.065Z,49.23
2019-04-30T23:54:50.483Z,48.07
2019-04-30T23:57:20.948Z,49.73
2019-04-30T23:59:51.381Z,46.40
